Time;durP1;ratioP1;P1;durP2;ratioP2;P2;SDS_P1;SDS_P2;PMS_P1;PMS_P2;Temp;Humidity;BMP_temperature;BMP_pressure;BME280_temperature;BME280_humidity;BME280_pressure;Samples;Min_cycle;Max_cycle;Signal;HPM_P1;HPM_P2
2021/11/04 17:06:54;;;;;;;;;10.00;10.00;;;;;10.98;68.81;101085.19;6236393;22;46310;-83
2021/11/04 17:13:01;;;;;;;;;;;;;;;;;;;;;
2021/11/04 17:15:37;;;;;;;;;;;;;;;;;;;;;
2021/11/04 17:32:27;;;;;;;;;;;;;;;;;;;;;
2021/11/04 17:35:25;;;;;;;;;12.75;11.50;;;;;11.01;69.34;101138.78;6036479;23;75388;-85
2021/11/04 17:37:57;;;;;;;;;16.75;14.75;;;;;11.07;69.27;101147.56;6032200;23;45434;-85
2021/11/04 17:43:47;;;;;;;;;17.75;15.75;;;;;11.07;69.49;101161.59;6183729;23;45471;-89
2021/11/04 17:46:33;;;;;;;;;14.00;14.00;;;;;11.13;69.47;101171.28;6182387;23;45544;-90
2021/11/04 17:49:01;;;;;;;;;10.25;10.00;;;;;10.96;68.84;101148.41;6227767;22;45460;-82
2021/11/04 17:51:32;;;;;;;;;9.50;9.50;;;;;11.10;69.29;101181.81;6247229;22;45601;-83
2021/11/04 17:54:00;;;;;;;;;11.00;11.00;;;;;10.95;69.21;101153.69;6273477;22;45350;-83
2021/11/04 17:56:25;;;;;;;;;11.00;10.25;;;;;11.08;69.10;101180.94;6274675;22;45495;-82
2021/11/04 17:59:59;;;;;;;;;;;;;;;;;;;;;
2021/11/04 18:02:25;;;;;;;;;19.25;16.75;;;;;10.97;69.01;101175.63;6196738;22;68904;-84
2021/11/04 18:04:51;;;;;;;;;10.50;10.50;;;;;11.12;69.10;101201.09;6275271;22;45622;-83
2021/11/04 18:07:19;;;;;;;;;13.00;11.00;;;;;10.92;69.21;101172.13;6297406;22;45581;-81
2021/11/04 18:09:52;;;;;;;;;8.00;8.00;;;;;10.91;68.79;101187.03;6301534;22;45417;-84
2021/11/04 18:12:18;;;;;;;;;8.00;8.00;;;;;11.04;68.98;101216.94;6305574;22;45239;-83
2021/11/04 18:14:54;;;;;;;;;;;;;;;;;;;;;
2021/11/04 18:17:22;;;;;;;;;10.50;8.50;;;;;11.04;69.05;101241.53;6306143;22;75522;-83
2021/11/04 18:19:57;;;;;;;;;8.50;8.50;;;;;10.99;69.20;101235.38;6279521;22;45347;-83
2021/11/04 18:22:42;;;;;;;;;11.00;11.00;;;;;10.89;68.96;101214.25;6279188;22;45307;-81
2021/11/04 18:33:00;;;;;;;;;11.25;10.50;;;;;10.96;69.25;101240.63;6030284;23;45484;-84
2021/11/04 18:35:25;;;;;;;;;10.50;10.00;;;;;10.78;69.38;101204.56;6192612;22;45245;-84
2021/11/04 18:37:56;;;;;;;;;14.25;13.00;;;;;10.76;69.02;101215.97;6211792;22;45809;-83
2021/11/04 18:43:59;;;;;;;;;14.00;12.00;;;;;10.77;69.38;101241.41;6288351;22;45282;-82
2021/11/04 18:46:27;;;;;;;;;13.75;8.75;;;;;10.63;69.25;101228.22;6307297;22;45500;-81
2021/11/04 18:48:54;;;;;;;;;11.25;11.25;;;;;10.65;69.56;101238.75;6280547;22;45349;-82
2021/11/04 18:51:19;;;;;;;;;15.75;14.00;;;;;10.64;69.41;101255.41;6308233;22;46366;-82
2021/11/04 19:00:38;;;;;;;;;14.75;14.50;;;;;10.46;69.87;101261.50;6210307;22;45929;-82
2021/11/04 19:06:10;;;;;;;;;17.00;13.00;;;;;10.49;70.04;101272.91;6241214;22;45435;-83
2021/11/04 19:09:08;;;;;;;;;15.00;15.00;;;;;10.42;69.93;101263.22;6307845;22;45271;-83
2021/11/04 19:11:39;;;;;;;;;14.25;14.25;;;;;10.39;70.14;101276.34;6308781;22;45189;-82
2021/11/04 19:14:25;;;;;;;;;13.50;13.25;;;;;10.21;69.64;101242.91;6278519;22;47617;-82
2021/11/04 19:16:57;;;;;;;;;14.25;14.25;;;;;10.35;70.15;101271.97;6307275;22;45756;-83
2021/11/04 19:19:23;;;;;;;;;8.00;7.75;;;;;10.34;69.63;101276.34;6306844;22;45415;-81
2021/11/04 19:22:27;;;;;;;;;15.25;14.25;;;;;10.26;70.06;101269.22;6307396;22;45858;-83
2021/11/04 19:28:43;;;;;;;;;15.25;13.75;;;;;10.31;70.09;101297.38;6306774;22;46285;-83
2021/11/04 19:31:08;;;;;;;;;13.00;12.25;;;;;10.20;70.19;101279.72;6277187;22;45295;-83
2021/11/04 19:34:17;;;;;;;;;12.00;12.00;;;;;10.19;69.90;101278.84;6278146;22;45229;-83
2021/11/04 19:36:43;;;;;;;;;13.75;11.75;;;;;10.23;70.35;101285.88;6303246;22;46106;-84
2021/11/04 19:39:08;;;;;;;;;11.75;11.75;;;;;10.30;70.27;101298.25;6282393;22;45470;-84
2021/11/04 19:41:34;;;;;;;;;10.00;8.75;;;;;10.29;70.58;101303.50;6309981;22;45325;-82
2021/11/04 19:44:02;;;;;;;;;13.00;10.75;;;;;10.33;70.13;101306.16;6307991;22;45491;-81
2021/11/04 19:46:28;;;;;;;;;13.75;10.75;;;;;10.27;70.05;101292.06;6310085;22;46561;-82
2021/11/04 19:48:54;;;;;;;;;13.25;13.00;;;;;10.37;69.98;101313.22;6281947;22;45246;-82
2021/11/04 19:51:23;;;;;;;;;10.25;10.00;;;;;10.41;70.25;101319.38;6307039;22;45342;-81
2021/11/04 19:53:49;;;;;;;;;10.00;9.50;;;;;10.27;70.02;101294.69;6279259;22;45765;-84
2021/11/04 19:56:17;;;;;;;;;16.75;14.25;;;;;10.26;69.73;101309.56;6280397;22;48024;-83
2021/11/04 19:58:43;;;;;;;;;13.00;10.25;;;;;10.41;69.64;101347.44;6306332;22;45438;-82
2021/11/04 20:01:08;;;;;;;;;10.25;10.25;;;;;10.36;69.75;101336.88;6306224;22;45608;-83
2021/11/04 20:03:38;;;;;;;;;14.00;11.75;;;;;10.38;69.64;101341.28;6304295;22;45294;-83
2021/11/04 20:06:12;;;;;;;;;13.00;13.00;;;;;10.37;69.97;101352.69;6305236;22;45759;-82
2021/11/04 20:08:39;;;;;;;;;12.50;12.50;;;;;10.35;70.10;101346.53;6277578;22;45397;-82
2021/11/04 20:11:05;;;;;;;;;7.25;7.25;;;;;10.28;69.94;101346.47;6279238;22;45772;-82
2021/11/04 20:13:35;;;;;;;;;9.00;6.75;;;;;10.33;69.85;101353.53;6277145;22;45613;-82
2021/11/04 20:16:14;;;;;;;;;9.25;9.25;;;;;10.15;69.81;101324.41;6277494;22;46794;-82
2021/11/04 20:18:40;;;;;;;;;8.00;8.00;;;;;10.26;69.84;101346.41;6305760;22;45267;-82
2021/11/04 20:21:11;;;;;;;;;7.75;6.75;;;;;10.20;69.67;101346.38;6277217;22;45657;-82
2021/11/04 20:23:37;;;;;;;;;10.25;9.50;;;;;10.29;69.76;101366.66;6277720;22;45493;-82
2021/11/04 20:26:05;;;;;;;;;10.00;9.00;;;;;10.36;69.90;101381.63;6277676;22;46795;-82
2021/11/04 20:28:43;;;;;;;;;9.00;6.25;;;;;10.34;69.87;101380.72;6305441;22;45332;-82
2021/11/04 20:31:12;;;;;;;;;8.50;8.00;;;;;10.20;69.85;101364.78;6277516;22;45616;-82
2021/11/04 20:33:38;;;;;;;;;10.00;10.00;;;;;10.25;69.94;101375.38;6307009;22;45420;-82
2021/11/04 20:36:07;;;;;;;;;10.50;10.50;;;;;10.27;70.31;101387.69;6306711;22;45525;-82
2021/11/04 20:38:42;;;;;;;;;9.75;9.25;;;;;10.26;70.05;101374.47;6278097;22;45315;-82
2021/11/04 20:41:15;;;;;;;;;10.50;8.25;;;;;10.20;70.05;101369.19;6278391;22;45416;-82
2021/11/04 20:43:42;;;;;;;;;10.00;9.00;;;;;10.22;70.31;101386.75;6277658;22;45774;-81
2021/11/04 20:46:08;;;;;;;;;9.50;8.50;;;;;10.20;70.17;101375.31;6277603;22;47745;-82
2021/11/04 20:48:39;;;;;;;;;9.50;8.75;;;;;10.29;70.26;101398.22;6278384;22;45953;-82
2021/11/04 20:51:12;;;;;;;;;8.00;8.00;;;;;10.36;70.67;101405.31;6277327;22;45402;-82
2021/11/04 20:53:38;;;;;;;;;10.25;9.75;;;;;10.38;70.08;101411.47;6303056;22;45454;-82
2021/11/04 20:56:04;;;;;;;;;9.75;8.75;;;;;10.39;70.18;101413.22;6276975;22;46778;-83
2021/11/04 20:58:30;;;;;;;;;7.00;7.00;;;;;10.41;70.38;101419.38;6305557;22;45406;-82
2021/11/04 21:00:56;;;;;;;;;8.50;8.00;;;;;10.35;70.21;101398.28;6306660;22;45606;-82
2021/11/04 21:03:24;;;;;;;;;10.50;9.50;;;;;10.42;70.17;101418.50;6277832;22;45501;-82
2021/11/04 21:05:52;;;;;;;;;5.50;5.50;;;;;10.27;70.20;101387.69;6277302;22;46921;-82
2021/11/04 21:08:18;;;;;;;;;7.00;7.00;;;;;10.37;70.22;101414.94;6307013;22;45543;-82
2021/11/04 21:10:46;;;;;;;;;8.50;6.75;;;;;10.21;70.06;101394.63;6306683;22;45462;-82
2021/11/04 21:13:13;;;;;;;;;7.25;7.25;;;;;10.34;69.95;101429.00;6278355;22;45355;-82
2021/11/04 21:15:44;;;;;;;;;9.00;6.25;;;;;10.24;70.28;101413.97;6306169;22;45557;-82
2021/11/04 21:18:11;;;;;;;;;5.00;5.00;;;;;10.23;70.26;101411.31;6304061;22;45381;-82
2021/11/04 21:20:40;;;;;;;;;9.00;6.00;;;;;10.24;70.28;101424.50;6277852;22;45299;-82
2021/11/04 21:23:22;;;;;;;;;9.25;8.25;;;;;10.18;70.48;101413.00;6305573;22;45385;-82
2021/11/04 21:25:48;;;;;;;;;11.75;10.00;;;;;10.35;70.12;101438.66;6276145;22;46248;-82
2021/11/04 21:28:17;;;;;;;;;6.75;6.25;;;;;10.22;70.40;101413.06;6305926;22;45397;-82
2021/11/04 21:30:43;;;;;;;;;10.00;10.00;;;;;10.29;70.25;101427.16;6304509;22;45795;-82
2021/11/04 21:33:11;;;;;;;;;8.25;7.00;;;;;10.33;70.31;101443.00;6278499;22;45390;-82
2021/11/04 21:35:38;;;;;;;;;9.75;9.75;;;;;10.35;70.39;101443.91;6305704;22;45679;-83
2021/11/04 21:41:29;;;;;;;;;11.00;8.25;;;;;10.36;70.47;101456.19;6310473;22;45330;-88
2021/11/04 21:43:54;;;;;;;;;7.75;7.25;;;;;10.35;70.78;101457.06;6279107;22;45642;-87
2021/11/04 21:46:21;;;;;;;;;10.00;10.00;;;;;10.39;70.71;101457.97;6281403;22;47261;-83
2021/11/04 21:48:51;;;;;;;;;7.25;5.50;;;;;10.44;70.81;101468.53;6307102;22;45478;-83
2021/11/04 21:51:18;;;;;;;;;8.75;4.75;;;;;10.31;70.71;101454.41;6307485;22;45377;-84
2021/11/04 21:53:44;;;;;;;;;5.00;5.00;;;;;10.43;70.75;101477.31;6306543;22;45348;-85
2021/11/04 21:56:09;;;;;;;;;5.00;4.00;;;;;10.31;71.06;101460.53;6302976;22;46849;-84
2021/11/04 21:58:35;;;;;;;;;5.75;5.75;;;;;10.28;71.01;101459.63;6277247;22;45509;-84
2021/11/04 22:01:08;;;;;;;;;8.00;8.00;;;;;10.34;71.19;101463.22;6307860;22;45356;-84
2021/11/04 22:03:35;;;;;;;;;11.50;8.25;;;;;10.42;71.13;101481.69;6277717;22;45587;-85
2021/11/04 22:06:08;;;;;;;;;7.00;7.00;;;;;10.43;71.09;101485.22;6278189;22;46327;-85
2021/11/04 22:08:34;;;;;;;;;8.50;6.50;;;;;10.40;71.00;101488.72;6278268;22;45883;-82
2021/11/04 22:11:02;;;;;;;;;8.75;7.75;;;;;10.46;71.16;101506.31;6278609;22;45759;-83
2021/11/04 22:13:29;;;;;;;;;9.00;9.00;;;;;10.38;71.37;101480.78;6305545;22;45456;-84
2021/11/04 22:15:55;;;;;;;;;5.00;5.00;;;;;10.37;71.28;101489.56;6303127;22;47965;-84
2021/11/04 22:18:23;;;;;;;;;8.50;7.00;;;;;10.43;71.27;101501.91;6306210;22;45879;-84
2021/11/04 22:20:50;;;;;;;;;7.75;7.50;;;;;10.36;71.54;101489.53;6305739;22;45397;-84
2021/11/04 22:23:16;;;;;;;;;10.25;9.00;;;;;10.28;71.20;101480.69;6306468;22;45638;-83
2021/11/04 22:25:49;;;;;;;;;8.50;8.50;;;;;10.41;71.64;101502.75;6305073;22;45484;-83
2021/11/04 22:28:18;;;;;;;;;8.75;8.00;;;;;10.46;71.73;101503.66;6305151;22;45476;-83
2021/11/04 22:30:49;;;;;;;;;11.00;9.00;;;;;10.46;71.57;101506.31;6275874;22;45403;-81
2021/11/04 22:33:15;;;;;;;;;8.50;7.00;;;;;10.30;71.69;101482.47;6305794;22;45420;-84
2021/11/04 22:35:42;;;;;;;;;11.50;10.00;;;;;10.36;71.63;101492.16;6305680;22;45757;-83
2021/11/04 22:38:08;;;;;;;;;8.00;7.00;;;;;10.36;71.74;101495.66;6306485;22;45495;-85
2021/11/04 22:40:34;;;;;;;;;11.00;10.00;;;;;10.30;71.75;101498.25;6278232;22;45457;-85
2021/11/04 22:43:00;;;;;;;;;10.75;10.00;;;;;10.33;71.70;101505.31;6277960;22;45789;-84
2021/11/04 22:45:25;;;;;;;;;8.50;7.75;;;;;10.42;71.78;101522.91;6306371;22;46643;-84
2021/11/04 22:47:51;;;;;;;;;9.00;8.00;;;;;10.46;71.69;101530.88;6306593;22;45688;-84
2021/11/04 22:50:16;;;;;;;;;9.75;8.75;;;;;10.45;71.74;101525.56;6278494;22;45505;-83
2021/11/04 22:52:42;;;;;;;;;10.00;9.25;;;;;10.47;71.58;101537.88;6306429;22;45311;-84
2021/11/04 22:55:08;;;;;;;;;7.75;7.75;;;;;10.34;71.57;101518.50;6306533;22;45496;-83
2021/11/04 22:57:34;;;;;;;;;9.00;9.00;;;;;10.41;71.82;101536.97;6302326;22;45394;-84
2021/11/04 23:00:00;;;;;;;;;6.25;6.25;;;;;10.31;71.54;101525.44;6304575;22;45509;-85
2021/11/04 23:02:26;;;;;;;;;7.00;5.50;;;;;10.39;71.40;101547.47;6308927;22;45581;-85
2021/11/04 23:04:54;;;;;;;;;5.00;5.00;;;;;10.33;71.61;101534.25;6280150;22;47484;-84
2021/11/04 23:07:19;;;;;;;;;4.25;4.25;;;;;10.31;71.82;101530.72;6282885;22;45397;-89
2021/11/04 23:09:45;;;;;;;;;9.00;7.75;;;;;10.38;71.54;101537.81;6310033;22;45367;-85
2021/11/04 23:12:14;;;;;;;;;4.00;4.00;;;;;10.28;71.39;101518.41;6282348;22;45224;-85
2021/11/04 23:14:41;;;;;;;;;5.75;5.75;;;;;10.38;71.23;101536.06;6308675;22;45674;-83
2021/11/04 23:17:07;;;;;;;;;5.25;4.25;;;;;10.27;71.33;101531.53;6309397;22;45414;-84
2021/11/04 23:19:33;;;;;;;;;3.50;3.00;;;;;10.25;71.29;101535.88;6308699;22;45705;-83
2021/11/04 23:21:59;;;;;;;;;3.00;2.75;;;;;10.24;71.10;101542.03;6281459;22;45411;-83
2021/11/04 23:24:24;;;;;;;;;4.25;4.25;;;;;10.19;71.10;101547.25;6308653;22;45472;-84
2021/11/04 23:26:50;;;;;;;;;7.25;6.00;;;;;10.18;71.14;101549.84;6282173;22;45267;-84
2021/11/04 23:29:16;;;;;;;;;6.50;4.00;;;;;10.26;71.26;101566.59;6306838;22;45381;-85
2021/11/04 23:31:42;;;;;;;;;4.00;2.75;;;;;10.21;71.29;101566.56;6280291;22;45259;-84
2021/11/04 23:34:08;;;;;;;;;8.50;4.75;;;;;10.08;71.69;101552.38;6307991;22;46188;-84
2021/11/04 23:36:34;;;;;;;;;4.00;4.00;;;;;10.18;71.38;101576.16;6308195;22;45706;-84
2021/11/04 23:38:59;;;;;;;;;5.50;5.50;;;;;10.11;71.52;101564.69;6309515;22;45309;-84
2021/11/04 23:41:57;;;;;;;;;5.00;5.00;;;;;10.19;71.48;101577.94;6314019;22;45418;-84
2021/11/04 23:44:22;;;;;;;;;8.25;8.00;;;;;10.14;71.32;101573.50;6309292;22;45544;-86
2021/11/04 23:46:50;;;;;;;;;9.00;8.00;;;;;10.02;71.91;101556.66;6287964;22;45187;-91
2021/11/04 23:49:16;;;;;;;;;8.50;8.50;;;;;10.04;71.53;101568.09;6318513;22;45261;-91
2021/11/04 23:51:41;;;;;;;;;10.50;8.50;;;;;10.09;71.97;101582.19;6316804;22;44716;-90
2021/11/04 23:54:07;;;;;;;;;8.00;8.00;;;;;9.89;71.69;101553.00;6291984;22;46948;-90
2021/11/04 23:56:32;;;;;;;;;9.00;7.00;;;;;10.04;71.58;101581.25;6292082;22;45535;-91
2021/11/04 23:58:58;;;;;;;;;7.00;5.00;;;;;10.02;71.58;101591.75;6291391;22;44690;-91
